createdAt,value
2018-09-24T00:01:08.869Z,93.03
2018-09-24T00:03:37.460Z,92.77
2018-09-24T00:06:06.146Z,92.53
2018-09-24T00:08:34.730Z,92.92
2018-09-24T00:11:03.277Z,93.28
2018-09-24T00:13:31.867Z,92.87
2018-09-24T00:16:00.469Z,92.77
2018-09-24T00:18:29.058Z,92.51
2018-09-24T00:20:57.674Z,92.58
2018-09-24T00:23:26.297Z,93.38
2018-09-24T00:25:54.881Z,92.98
2018-09-24T00:28:23.582Z,92.65
2018-09-24T00:30:52.174Z,92.57
2018-09-24T00:33:20.825Z,92.61
2018-09-24T00:35:49.430Z,93.42
2018-09-24T00:38:18.037Z,93.87
2018-09-24T00:40:46.650Z,93.85
2018-09-24T00:43:16.212Z,94.16
2018-09-24T00:45:44.816Z,93.71
2018-09-24T00:48:14.162Z,93.37
2018-09-24T00:50:42.710Z,92.67
2018-09-24T00:53:11.331Z,91.58
2018-09-24T00:55:39.915Z,92.20
2018-09-24T00:58:08.502Z,92.38
2018-09-24T01:00:37.101Z,92.26
2018-09-24T01:03:05.786Z,92.96
2018-09-24T01:05:34.349Z,93.50
2018-09-24T01:08:03.014Z,92.88
2018-09-24T01:10:31.587Z,92.82
2018-09-24T01:13:00.178Z,93.76
2018-09-24T01:15:28.742Z,93.75
2018-09-24T01:17:57.341Z,93.86
2018-09-24T01:20:25.954Z,93.60
2018-09-24T01:22:54.625Z,93.58
2018-09-24T01:25:23.185Z,93.29
2018-09-24T01:27:51.804Z,93.18
2018-09-24T01:30:20.402Z,93.39
2018-09-24T01:32:48.997Z,93.15
2018-09-24T01:35:17.568Z,92.46
2018-09-24T01:37:46.154Z,92.08
2018-09-24T01:40:14.717Z,92.38
2018-09-24T01:42:43.315Z,92.30
2018-09-24T01:45:11.866Z,91.93
2018-09-24T01:47:40.484Z,91.92
2018-09-24T01:50:09.158Z,92.65
2018-09-24T01:52:37.734Z,93.17
2018-09-24T01:55:06.317Z,93.54
2018-09-24T01:57:34.890Z,94.18
2018-09-24T02:00:03.532Z,94.40
2018-09-24T02:02:32.130Z,94.75
2018-09-24T02:05:00.796Z,94.89
2018-09-24T02:07:29.546Z,94.77
2018-09-24T02:09:58.225Z,95.24
2018-09-24T02:12:26.814Z,95.35
2018-09-24T02:14:55.353Z,95.54
2018-09-24T02:17:24.313Z,95.63
2018-09-24T02:19:53.021Z,95.82
2018-09-24T02:22:27.425Z,95.91
2018-09-24T02:24:57.264Z,96.37
2018-09-24T02:27:26.661Z,96.27
2018-09-24T02:29:55.801Z,96.82
2018-09-24T02:32:24.385Z,96.86
2018-09-24T02:34:55.502Z,96.33
2018-09-24T02:37:24.057Z,96.51
2018-09-24T02:39:52.733Z,96.91
2018-09-24T02:42:21.288Z,96.85
2018-09-24T02:44:58.838Z,97.34
2018-09-24T02:47:32.601Z,97.12
2018-09-24T02:50:02.795Z,97.07
2018-09-24T02:52:31.375Z,97.08
2018-09-24T02:54:59.946Z,97.12
2018-09-24T02:57:29.637Z,97.15
2018-09-24T02:59:58.266Z,97.31
2018-09-24T03:02:26.832Z,97.79
2018-09-24T03:04:56.032Z,97.74
2018-09-24T03:07:24.906Z,97.44
2018-09-24T03:09:53.489Z,97.47
2018-09-24T03:12:22.341Z,97.88
2018-09-24T03:14:50.985Z,97.55
2018-09-24T03:17:20.170Z,96.90
2018-09-24T03:19:48.756Z,97.24
2018-09-24T03:22:21.526Z,96.93
2018-09-24T03:24:50.310Z,97.00
2018-09-24T03:27:18.870Z,97.12
2018-09-24T03:29:47.453Z,97.03
2018-09-24T03:32:16.023Z,96.76
2018-09-24T03:34:44.603Z,96.96
2018-09-24T03:37:13.159Z,96.77
2018-09-24T03:39:41.738Z,96.66
2018-09-24T03:42:10.307Z,96.89
2018-09-24T03:44:38.917Z,96.91
2018-09-24T03:47:07.473Z,97.52
2018-09-24T03:49:36.075Z,97.30
2018-09-24T03:52:04.665Z,97.27
2018-09-24T03:54:33.248Z,97.11
2018-09-24T03:57:01.865Z,96.70
2018-09-24T03:59:30.448Z,97.32
2018-09-24T04:01:59.153Z,97.65
2018-09-24T04:04:32.855Z,97.46
2018-09-24T04:07:06.715Z,97.05
2018-09-24T04:09:40.595Z,97.34
2018-09-24T04:12:14.316Z,96.56
2018-09-24T04:14:48.195Z,96.25
2018-09-24T04:17:22.542Z,95.74
2018-09-24T04:19:56.246Z,96.42
2018-09-24T04:22:29.923Z,95.87
2018-09-24T04:25:03.787Z,96.39
2018-09-24T04:27:38.411Z,96.87
2018-09-24T04:30:12.191Z,96.40
2018-09-24T04:32:45.807Z,96.12
2018-09-24T04:35:19.669Z,95.99
2018-09-24T04:37:55.422Z,96.72
2018-09-24T04:40:29.106Z,96.41
2018-09-24T04:43:02.757Z,97.08
2018-09-24T04:45:36.591Z,96.58
2018-09-24T04:48:11.122Z,96.17
2018-09-24T04:50:44.987Z,96.98
2018-09-24T04:53:19.135Z,96.21
2018-09-24T04:55:52.829Z,97.13
2018-09-24T04:58:27.154Z,97.11
2018-09-24T05:01:01.317Z,97.61
2018-09-24T05:03:35.100Z,97.31
2018-09-24T05:06:08.934Z,96.89
2018-09-24T05:08:43.377Z,96.97
2018-09-24T05:11:17.077Z,96.89
2018-09-24T05:13:50.749Z,96.69
2018-09-24T05:16:24.374Z,97.38
2018-09-24T05:18:59.143Z,97.66
2018-09-24T05:21:32.910Z,97.90
2018-09-24T05:24:06.637Z,98.09
2018-09-24T05:26:40.277Z,97.76
2018-09-24T05:29:14.966Z,97.76
2018-09-24T05:31:48.948Z,96.92
2018-09-24T05:34:22.779Z,97.85
2018-09-24T05:36:56.601Z,97.11
2018-09-24T05:39:38.164Z,96.73
2018-09-24T05:42:11.994Z,97.49
2018-09-24T05:44:45.658Z,97.01
2018-09-24T05:47:19.397Z,96.79
2018-09-24T05:49:54.225Z,96.49
2018-09-24T05:52:27.983Z,95.84
2018-09-24T05:55:01.893Z,95.55
2018-09-24T05:57:35.746Z,96.09
2018-09-24T06:00:10.174Z,95.50
2018-09-24T06:02:43.999Z,95.40
2018-09-24T06:05:17.716Z,94.91
2018-09-24T06:07:51.546Z,94.57
2018-09-24T06:10:26.175Z,94.68
2018-09-24T06:12:59.974Z,94.20
2018-09-24T06:15:33.772Z,93.79
2018-09-24T06:18:07.510Z,94.04
2018-09-24T06:20:42.202Z,93.25
2018-09-24T06:23:15.790Z,92.68
2018-09-24T06:25:49.375Z,92.02
2018-09-24T06:28:23.258Z,87.69
2018-09-24T06:30:57.590Z,74.17
2018-09-24T06:33:31.403Z,67.41
2018-09-24T06:36:05.069Z,64.36
2018-09-24T06:38:38.772Z,59.42
2018-09-24T06:41:13.463Z,57.74
2018-09-24T06:43:47.262Z,53.33
2018-09-24T06:46:20.828Z,50.10
2018-09-24T06:48:54.473Z,47.09
2018-09-24T06:51:29.221Z,47.28
2018-09-24T06:54:03.090Z,47.85
2018-09-24T06:56:36.995Z,47.73
2018-09-24T06:59:11.114Z,49.27
2018-09-24T07:01:46.005Z,48.05
2018-09-24T07:04:19.770Z,46.03
2018-09-24T07:06:53.585Z,39.31
2018-09-24T07:09:27.454Z,39.98
2018-09-24T07:12:01.822Z,39.19
2018-09-24T07:14:35.581Z,40.45
2018-09-24T07:17:09.427Z,37.79
2018-09-24T07:19:43.139Z,37.49
2018-09-24T07:22:17.764Z,37.44
2018-09-24T07:24:51.575Z,37.03
2018-09-24T07:27:25.316Z,36.38
2018-09-24T07:29:59.157Z,37.74
2018-09-24T07:32:33.569Z,35.97
2018-09-24T07:35:07.395Z,38.03
2018-09-24T07:37:41.016Z,37.71
2018-09-24T07:40:14.769Z,35.98
2018-09-24T07:42:49.266Z,33.91
2018-09-24T07:45:23.138Z,33.54
2018-09-24T07:47:57.021Z,33.31
2018-09-24T07:50:30.877Z,30.44
2018-09-24T07:53:05.446Z,31.26
2018-09-24T07:55:39.309Z,30.71
2018-09-24T07:58:13.112Z,30.37
2018-09-24T08:00:46.805Z,28.18
2018-09-24T08:03:21.788Z,32.35
2018-09-24T08:05:55.618Z,27.87
2018-09-24T08:08:29.317Z,30.42
2018-09-24T08:11:02.905Z,33.84
2018-09-24T08:13:37.003Z,33.10
2018-09-24T08:16:10.842Z,27.43
2018-09-24T08:18:44.653Z,27.71
2018-09-24T08:21:18.338Z,25.91
2018-09-24T08:23:52.838Z,28.89
2018-09-24T08:26:26.486Z,29.82
2018-09-24T08:29:00.330Z,30.19
2018-09-24T08:31:33.998Z,32.92
2018-09-24T08:34:08.350Z,35.07
2018-09-24T08:36:42.031Z,35.19
2018-09-24T08:39:15.741Z,33.44
2018-09-24T08:41:49.434Z,33.86
2018-09-24T08:44:24.278Z,31.09
2018-09-24T08:46:58.139Z,32.02
2018-09-24T08:49:31.858Z,31.25
2018-09-24T08:52:05.561Z,28.90
2018-09-24T08:54:39.434Z,30.63
2018-09-24T08:57:13.275Z,29.94
2018-09-24T08:59:46.928Z,25.33
2018-09-24T09:02:20.709Z,28.28
2018-09-24T09:04:55.821Z,27.15
2018-09-24T09:07:29.393Z,26.39
2018-09-24T09:10:03.227Z,31.21
2018-09-24T09:12:37.067Z,26.12
2018-09-24T09:15:11.993Z,32.30
2018-09-24T09:17:45.810Z,39.14
2018-09-24T09:20:19.441Z,48.22
2018-09-24T09:22:53.154Z,49.99
2018-09-24T09:25:27.703Z,35.55
2018-09-24T09:28:01.270Z,29.88
2018-09-24T09:30:34.905Z,27.05
2018-09-24T09:33:08.611Z,21.98
2018-09-24T09:35:43.453Z,24.51
2018-09-24T09:38:16.976Z,23.23
2018-09-24T09:40:50.717Z,29.72
2018-09-24T09:43:24.516Z,26.81
2018-09-24T09:45:59.756Z,32.64
2018-09-24T09:48:33.446Z,29.59
2018-09-24T09:51:08.191Z,32.60
2018-09-24T09:53:41.852Z,27.50
2018-09-24T09:56:16.544Z,32.19
2018-09-24T09:58:50.368Z,32.99
2018-09-24T10:01:24.007Z,29.94
2018-09-24T10:03:57.685Z,30.31
2018-09-24T10:06:32.107Z,31.33
2018-09-24T10:09:05.854Z,28.10
2018-09-24T10:11:39.490Z,31.28
2018-09-24T10:14:13.188Z,36.99
2018-09-24T10:16:48.651Z,42.67
2018-09-24T10:19:22.364Z,31.62
2018-09-24T10:21:56.223Z,25.46
2018-09-24T10:24:29.946Z,25.97
2018-09-24T10:27:04.113Z,25.13
2018-09-24T10:29:37.982Z,27.19
2018-09-24T10:32:11.723Z,33.79
2018-09-24T10:34:45.482Z,27.93
2018-09-24T10:37:19.894Z,23.36
2018-09-24T10:39:53.634Z,23.94
2018-09-24T10:42:27.565Z,25.59
2018-09-24T10:45:01.423Z,29.04
2018-09-24T10:47:36.237Z,33.59
2018-09-24T10:50:10.095Z,32.59
2018-09-24T10:52:43.896Z,34.39
2018-09-24T10:55:17.684Z,37.50
2018-09-24T10:57:52.222Z,31.00
2018-09-24T11:00:26.041Z,27.34
2018-09-24T11:02:59.663Z,30.27
2018-09-24T11:05:33.498Z,34.20
2018-09-24T11:08:11.470Z,33.22
2018-09-24T11:10:45.250Z,26.36
2018-09-24T11:13:19.029Z,26.09
2018-09-24T11:15:52.778Z,29.25
2018-09-24T11:18:26.862Z,29.67
2018-09-24T11:21:00.514Z,27.44
2018-09-24T11:23:34.297Z,22.78
2018-09-24T11:26:08.035Z,24.15
2018-09-24T11:28:42.295Z,24.92
2018-09-24T11:31:16.125Z,22.68
2018-09-24T11:33:50.002Z,19.29
2018-09-24T11:36:23.859Z,23.30
2018-09-24T11:38:58.229Z,27.27
2018-09-24T11:41:32.168Z,30.90
2018-09-24T11:44:05.958Z,36.04
2018-09-24T11:46:39.852Z,38.87
2018-09-24T11:49:14.131Z,38.74
2018-09-24T11:51:47.963Z,41.11
2018-09-24T11:54:21.806Z,42.45
2018-09-24T11:56:55.514Z,41.82
2018-09-24T11:59:30.054Z,44.83
2018-09-24T12:02:03.972Z,45.74
2018-09-24T12:04:37.741Z,50.87
2018-09-24T12:07:11.987Z,52.14
2018-09-24T12:09:46.878Z,57.34
2018-09-24T12:12:20.637Z,59.37
2018-09-24T12:14:54.491Z,58.31
2018-09-24T12:17:28.166Z,56.64
2018-09-24T12:20:02.773Z,59.83
2018-09-24T12:22:36.446Z,57.09
2018-09-24T12:25:10.366Z,56.02
2018-09-24T12:27:44.182Z,55.29
2018-09-24T12:30:18.694Z,51.49
2018-09-24T12:32:52.515Z,48.02
2018-09-24T12:35:26.326Z,41.13
2018-09-24T12:38:00.118Z,36.31
2018-09-24T12:40:35.105Z,32.79
2018-09-24T12:43:08.807Z,30.95
2018-09-24T12:45:42.647Z,29.10
2018-09-24T12:48:16.484Z,27.43
2018-09-24T12:50:51.047Z,25.91
2018-09-24T12:53:24.864Z,25.53
2018-09-24T12:55:58.583Z,25.99
2018-09-24T12:58:32.592Z,26.63
2018-09-24T13:01:06.806Z,26.38
2018-09-24T13:03:40.609Z,25.26
2018-09-24T13:06:14.450Z,28.92
2018-09-24T13:08:48.233Z,31.51
2018-09-24T13:11:22.670Z,34.66
2018-09-24T13:13:56.349Z,36.20
2018-09-24T13:16:30.086Z,31.79
2018-09-24T13:19:03.914Z,33.51
2018-09-24T13:21:38.333Z,30.50
2018-09-24T13:24:12.206Z,27.88
2018-09-24T13:26:45.967Z,24.98
2018-09-24T13:29:19.634Z,26.97
2018-09-24T13:31:54.181Z,33.07
2018-09-24T13:34:27.939Z,34.93
2018-09-24T13:37:01.754Z,38.35
2018-09-24T13:39:35.645Z,39.98
2018-09-24T13:42:09.861Z,41.39
2018-09-24T13:44:43.678Z,43.80
2018-09-24T13:47:17.399Z,36.20
2018-09-24T13:49:51.180Z,34.67
2018-09-24T13:52:25.434Z,34.35
2018-09-24T13:54:59.098Z,30.16
2018-09-24T13:57:32.830Z,29.97
2018-09-24T14:00:06.682Z,32.70
2018-09-24T14:02:41.767Z,33.79
2018-09-24T14:05:15.426Z,33.78
2018-09-24T14:07:49.258Z,36.35
2018-09-24T14:10:23.118Z,38.78
2018-09-24T14:12:58.221Z,40.64
2018-09-24T14:15:31.913Z,41.81
2018-09-24T14:18:09.659Z,43.47
2018-09-24T14:20:43.301Z,43.62
2018-09-24T14:23:17.447Z,44.17
2018-09-24T14:25:51.236Z,45.86
2018-09-24T14:28:24.893Z,46.63
2018-09-24T14:30:58.678Z,46.99
2018-09-24T14:33:33.177Z,48.04
2018-09-24T14:36:06.909Z,49.90
2018-09-24T14:38:41.090Z,51.66
2018-09-24T14:41:14.827Z,50.42
2018-09-24T14:43:49.518Z,51.17
2018-09-24T14:46:23.329Z,52.17
2018-09-24T14:48:56.894Z,52.68
2018-09-24T14:51:30.609Z,50.07
2018-09-24T14:54:04.835Z,42.33
2018-09-24T14:56:38.569Z,42.51
2018-09-24T14:59:12.241Z,40.22
2018-09-24T15:01:46.070Z,38.67
2018-09-24T15:04:20.613Z,39.87
2018-09-24T15:06:54.714Z,39.46
2018-09-24T15:09:28.493Z,41.46
2018-09-24T15:12:02.317Z,45.79
2018-09-24T15:14:36.550Z,49.06
2018-09-24T15:17:10.290Z,51.09
2018-09-24T15:19:44.361Z,52.44
2018-09-24T15:22:18.067Z,53.36
2018-09-24T15:24:52.719Z,54.15
2018-09-24T15:27:26.470Z,52.95
2018-09-24T15:30:00.303Z,51.94
2018-09-24T15:32:35.498Z,53.37
2018-09-24T15:35:10.195Z,53.69
2018-09-24T15:37:43.946Z,54.36
2018-09-24T15:40:17.809Z,54.79
2018-09-24T15:42:51.510Z,55.80
2018-09-24T15:45:25.948Z,55.29
2018-09-24T15:47:59.685Z,55.32
2018-09-24T15:50:33.522Z,56.23
2018-09-24T15:53:07.269Z,55.52
2018-09-24T15:55:41.262Z,55.29
2018-09-24T15:58:19.331Z,55.81
2018-09-24T16:00:53.158Z,57.33
2018-09-24T16:03:26.978Z,58.71
2018-09-24T16:06:01.376Z,63.53
2018-09-24T16:08:35.265Z,66.34
2018-09-24T16:11:09.159Z,71.86
2018-09-24T16:13:43.046Z,74.24
2018-09-24T16:16:17.459Z,74.24
2018-09-24T16:18:51.621Z,76.60
2018-09-24T16:21:25.281Z,69.72
2018-09-24T16:23:59.026Z,72.49
2018-09-24T16:26:34.646Z,68.90
2018-09-24T16:29:08.379Z,69.51
2018-09-24T16:31:42.251Z,69.72
2018-09-24T16:34:16.047Z,71.57
2018-09-24T16:36:50.837Z,68.38
2018-09-24T16:39:29.510Z,67.02
2018-09-24T16:42:03.302Z,67.80
2018-09-24T16:44:36.977Z,67.53
2018-09-24T16:47:11.982Z,65.25
2018-09-24T16:49:45.568Z,66.79
2018-09-24T16:52:19.246Z,68.11
2018-09-24T16:54:52.990Z,65.64
2018-09-24T16:57:27.350Z,66.69
2018-09-24T17:00:01.080Z,66.93
2018-09-24T17:02:34.802Z,68.05
2018-09-24T17:05:08.545Z,68.39
2018-09-24T17:07:43.673Z,68.67
2018-09-24T17:10:17.271Z,69.92
2018-09-24T17:12:50.993Z,69.71
2018-09-24T17:15:24.828Z,69.31
2018-09-24T17:17:58.496Z,70.61
2018-09-24T17:20:32.222Z,70.06
2018-09-24T17:23:05.904Z,71.02
2018-09-24T17:25:39.656Z,70.70
2018-09-24T17:28:13.975Z,71.96
2018-09-24T17:30:47.790Z,70.92
2018-09-24T17:33:21.472Z,71.26
2018-09-24T17:35:55.288Z,73.18
2018-09-24T17:38:29.766Z,73.36
2018-09-24T17:41:03.489Z,73.65
2018-09-24T17:43:37.161Z,75.18
2018-09-24T17:46:10.891Z,74.95
2018-09-24T17:48:45.937Z,75.14
2018-09-24T17:51:19.661Z,75.43
2018-09-24T17:53:53.489Z,75.72
2018-09-24T17:56:27.693Z,75.63
2018-09-24T17:59:02.119Z,75.97
2018-09-24T18:01:35.851Z,77.19
2018-09-24T18:04:09.547Z,76.54
2018-09-24T18:06:43.262Z,76.60
2018-09-24T18:09:18.159Z,76.78
2018-09-24T18:11:51.989Z,76.71
2018-09-24T18:14:25.739Z,77.19
2018-09-24T18:16:59.412Z,77.34
2018-09-24T18:19:33.434Z,77.83
2018-09-24T18:22:07.294Z,78.96
2018-09-24T18:24:40.971Z,79.47
2018-09-24T18:27:14.629Z,79.92
2018-09-24T18:29:49.797Z,79.06
2018-09-24T18:32:23.502Z,79.48
2018-09-24T18:34:57.242Z,81.00
2018-09-24T18:37:31.036Z,80.71
2018-09-24T18:40:05.904Z,81.25
2018-09-24T18:42:39.741Z,80.99
2018-09-24T18:45:13.473Z,81.81
2018-09-24T18:47:47.145Z,81.85
2018-09-24T18:50:21.418Z,81.85
2018-09-24T18:52:55.247Z,82.71
2018-09-24T18:55:29.091Z,82.19
2018-09-24T18:58:02.927Z,82.45
2018-09-24T19:00:37.691Z,82.70
2018-09-24T19:03:11.518Z,82.39
2018-09-24T19:05:45.153Z,82.69
2018-09-24T19:08:19.098Z,82.07
2018-09-24T19:10:53.278Z,83.75
2018-09-24T19:13:26.987Z,83.34
2018-09-24T19:16:00.678Z,83.15
2018-09-24T19:18:34.663Z,83.01
2018-09-24T19:21:09.562Z,83.79
2018-09-24T19:23:43.407Z,83.73
2018-09-24T19:26:17.168Z,84.17
2018-09-24T19:28:51.530Z,84.82
2018-09-24T19:31:25.927Z,85.06
2018-09-24T19:33:59.677Z,84.94
2018-09-24T19:36:33.461Z,84.41
2018-09-24T19:39:07.241Z,84.68
2018-09-24T19:41:42.207Z,84.42
2018-09-24T19:44:15.851Z,84.69
2018-09-24T19:46:49.611Z,84.99
2018-09-24T19:49:23.386Z,85.02
2018-09-24T19:51:59.138Z,86.16
2018-09-24T19:54:32.992Z,85.82
2018-09-24T19:57:06.662Z,85.00
2018-09-24T19:59:40.361Z,85.59
2018-09-24T20:02:15.162Z,85.62
2018-09-24T20:04:48.915Z,85.54
2018-09-24T20:07:22.742Z,85.35
2018-09-24T20:09:56.569Z,85.10
2018-09-24T20:12:30.523Z,86.19
2018-09-24T20:15:04.386Z,86.28
2018-09-24T20:17:37.925Z,85.63
2018-09-24T20:20:11.623Z,86.52
2018-09-24T20:22:45.490Z,86.67
2018-09-24T20:25:19.268Z,85.89
2018-09-24T20:27:53.046Z,85.72
2018-09-24T20:30:26.927Z,86.73
2018-09-24T20:33:01.905Z,85.16
2018-09-24T20:35:35.702Z,84.63
2018-09-24T20:38:09.399Z,85.82
2018-09-24T20:40:43.234Z,84.84
2018-09-24T20:43:17.886Z,85.36
2018-09-24T20:45:51.577Z,85.90
2018-09-24T20:48:25.219Z,85.62
2018-09-24T20:50:59.050Z,85.55
2018-09-24T20:53:33.727Z,86.73
2018-09-24T20:56:07.426Z,86.24
2018-09-24T20:58:41.239Z,86.48
2018-09-24T21:01:15.130Z,86.93
2018-09-24T21:03:49.750Z,86.91
2018-09-24T21:06:23.534Z,87.10
2018-09-24T21:08:57.269Z,85.66
2018-09-24T21:11:30.931Z,86.92
2018-09-24T21:14:05.750Z,85.85
2018-09-24T21:16:39.382Z,86.29
2018-09-24T21:19:13.253Z,87.19
2018-09-24T21:21:46.826Z,86.42
2018-09-24T21:24:20.850Z,88.29
2018-09-24T21:26:55.754Z,87.51
2018-09-24T21:29:29.645Z,86.95
2018-09-24T21:32:03.268Z,86.78
2018-09-24T21:34:37.510Z,87.46
2018-09-24T21:37:11.230Z,87.86
2018-09-24T21:39:45.019Z,87.87
2018-09-24T21:42:18.786Z,87.76
2018-09-24T21:44:52.946Z,87.87
2018-09-24T21:47:26.649Z,87.70
2018-09-24T21:50:00.495Z,88.37
2018-09-24T21:52:34.171Z,88.06
2018-09-24T21:55:09.026Z,87.76
2018-09-24T21:57:42.765Z,88.20
2018-09-24T22:00:16.633Z,88.03
2018-09-24T22:02:50.438Z,88.35
2018-09-24T22:05:24.921Z,88.34
2018-09-24T22:07:58.721Z,88.35
2018-09-24T22:10:39.394Z,88.20
2018-09-24T22:13:13.188Z,88.40
2018-09-24T22:15:47.974Z,88.24
2018-09-24T22:18:21.642Z,88.44
2018-09-24T22:20:55.349Z,87.80
2018-09-24T22:23:28.874Z,87.53
2018-09-24T22:26:03.717Z,87.46
2018-09-24T22:28:37.313Z,87.99
2018-09-24T22:31:11.127Z,87.49
2018-09-24T22:33:44.903Z,88.14
2018-09-24T22:36:19.829Z,87.85
2018-09-24T22:38:53.485Z,87.93
2018-09-24T22:41:27.170Z,87.49
2018-09-24T22:44:01.002Z,88.35
2018-09-24T22:46:35.009Z,87.96
2018-09-24T22:49:08.809Z,87.38
2018-09-24T22:51:42.547Z,87.31
2018-09-24T22:54:16.191Z,88.16
2018-09-24T22:56:51.273Z,88.16
2018-09-24T22:59:25.047Z,87.96
2018-09-24T23:02:03.832Z,89.18
2018-09-24T23:04:37.507Z,88.99
2018-09-24T23:07:12.193Z,88.57
2018-09-24T23:09:45.826Z,89.67
2018-09-24T23:12:19.515Z,89.54
2018-09-24T23:14:53.133Z,88.99
2018-09-24T23:17:27.827Z,89.35
2018-09-24T23:20:01.721Z,88.63
2018-09-24T23:22:35.411Z,88.31
2018-09-24T23:25:09.057Z,88.69
2018-09-24T23:27:43.521Z,88.80
2018-09-24T23:30:17.188Z,90.07
2018-09-24T23:32:50.906Z,91.36
2018-09-24T23:35:24.672Z,90.57
2018-09-24T23:38:00.046Z,89.95
2018-09-24T23:40:33.817Z,89.23
2018-09-24T23:43:07.473Z,89.30
2018-09-24T23:45:41.286Z,89.05
2018-09-24T23:48:16.261Z,89.83
2018-09-24T23:50:49.978Z,88.49
2018-09-24T23:53:23.847Z,88.88
2018-09-24T23:55:57.509Z,89.27
2018-09-24T23:58:32.034Z,90.18
